Domov               UVHVVR             MKGP            O straneh              
ZDRAVSTVENO VARSTVO RASTLIN
  MREŽA AGROMET. POSTAJ
 ► PROGNOSTIČNA OBVESTILA
AGROMETEOROLOŠKI PODATKI -
ARSO
OBVLADOVANJE TVEGANJ ZARADI
NEUGODNIH VREMENSKIH RAZMER
  ► NARAVNE NESREČE
  ► SUŠA/MOČA
  ► NAMAKANJE
  ► ŽLED (gozdarstvo)
KARTOGRAFSKI PRIKAZI
SPLETNE POVEZAVE
PROJEKTI IN PUBLIKACIJE

AGROMETEOROLOŠKA MREŽA: VREMENSKE POSTAJE IN FENOLOŠKA OPAZOVANJA

Pregled podatkov za lokacijo BOROVNICA, meteorološka postaja 27469

Pregled senzorjev na lokaciji

ID Ime Zadnja
vrednost
Datum
zadnje
spremembe
Tip
senzorja
1683 Temperatura 2 m ( °C) 20,07 °C 17.10.2017 14:29 Generic -40 - +60 °C
1684 Relativna vlaga 2 m (% RH) 58,75 % RH 17.10.2017 14:30 Generic 0 - 100 %
2195 Padavine 0.2 mm (mm) 0 mm 17.10.2017 14:29 Generic 0.2 mm
2199 Omočenost lista (U) 0 U 17.10.2017 14:29 A730WET

Pregled podatkov zadnjih 24 ur

Zap.
št.
Datum in čas BOROVNICA
Omočenost
lista
Padavine
0.2
mm
Relativna
vlaga
2
m
Temperatura
2
m
0 17.10.2017 13:30 0 0 58,75 20,07
1 17.10.2017 13:00 0 0 62,3 18,68
2 17.10.2017 12:30 0 0 68,01 17,26
3 17.10.2017 12:00 0 0 73,58 15,38
4 17.10.2017 11:30 0 0 90,65 12,41
5 17.10.2017 11:00 0 0 99,93 10,48
6 17.10.2017 10:30 0 0 99,93 9,87
7 17.10.2017 10:00 0 0 99,93 9,13
8 17.10.2017 09:30 0 0 99,93 8,74
9 17.10.2017 09:00 0 0 99,93 8,23
10 17.10.2017 08:30 0 0 99,93 7,89
11 17.10.2017 08:00 0 0 99,93 7,64
12 17.10.2017 07:30 0 0 99,93 7,23
13 17.10.2017 07:00 0 0 99,93 6,89
14 17.10.2017 06:30 0 0 99,93 6,67
15 17.10.2017 06:00 0 0 99,93 6,5
16 17.10.2017 05:30 0 0 99,93 6,25
17 17.10.2017 05:00 0 0 99,93 5,93
18 17.10.2017 04:30 0 0 99,93 5,54
19 17.10.2017 04:00 0 0 99,93 5,23
20 17.10.2017 03:30 0 0 99,93 4,86
21 17.10.2017 03:00 0 0,2 99,93 4,62
22 17.10.2017 02:30 0 0 99,93 4,84
23 17.10.2017 02:00 0 0 99,93 4,64
24 17.10.2017 01:30 0 0 99,93 4,1
25 17.10.2017 01:00 0 0 99,93 3,96
26 17.10.2017 00:30 0 0 99,93 4,32
27 17.10.2017 00:00 0 0 99,93 4,96
28 16.10.2017 23:30 0 0 99,93 4,96
29 16.10.2017 23:00 0 0 99,93 5,18
30 16.10.2017 22:30 0 0 99,93 5,62
31 16.10.2017 22:00 0 0 99,93 5,93
32 16.10.2017 21:30 0 0 99,93 6,47
33 16.10.2017 21:00 0 0 99,93 7,33
34 16.10.2017 20:30 0 0 99,93 7,74
35 16.10.2017 20:00 0 0 99,93 8,13
36 16.10.2017 19:30 0 0 99,93 8,69
37 16.10.2017 19:00 0 0 99,93 9,47
38 16.10.2017 18:30 0 0 99,93 9,69
39 16.10.2017 18:00 0 0 96,34 10,89
40 16.10.2017 17:30 0 0 84,59 12,87
41 16.10.2017 17:00 0 0 75,29 14,7
42 16.10.2017 16:30 0 0 64,13 18,83
43 16.10.2017 16:00 0 0 57,46 21,27
44 16.10.2017 15:30 0 0 52,19 21,76
© 2011 Ministrstvo za kmetijstvo, gozdarstvo in prehrano. Vse pravice pridržane.